DLH4JV EDDF-EDDS
Flight info
| Callsign | DLH4JV |
|---|---|
| Flight time | 0h 49m |
| Altitude | 19000 |
| Route | ANEKI2L/18 ANEKI Y163 NEKLO Y171 INKAM N850 KRH T128 BADSO BADSO2A |
| Aircraft | A319/M-SDE3FGHIRWY/LB1 |
Departure
| Time | 2026-05-04 10:59 |
|---|---|
| Airport | Frankfurt Main Airport (EDDF) |
Arrival
| Time | 2026-05-04 11:49 |
|---|---|
| Airport | Stuttgart Airport (EDDS) |
| Time | Latitude | Longitude | Altitude | Speed | Heading |
|---|---|---|---|---|---|
| 2026-05-04 10:31 | 50.04815 | 8.57179 | 349 ft | 0 kts | 115° |
| 2026-05-04 10:49 | 50.04816 | 8.57177 | 346 ft | 2 kts | 115° |
| 2026-05-04 10:49 | 50.04826 | 8.57142 | 356 ft | 4 kts | 117° |
| 2026-05-04 10:50 | 50.04840 | 8.57106 | 352 ft | 4 kts | 130° |
| 2026-05-04 10:51 | 50.04864 | 8.57086 | 353 ft | 0 kts | 207° |
| 2026-05-04 10:54 | 50.04443 | 8.56801 | 346 ft | 26 kts | 242° |
| 2026-05-04 10:54 | 50.04376 | 8.56512 | 350 ft | 31 kts | 250° |
| 2026-05-04 10:56 | 50.03789 | 8.54185 | 347 ft | 30 kts | 249° |
| 2026-05-04 10:56 | 50.03718 | 8.53876 | 352 ft | 31 kts | 249° |
| 2026-05-04 10:56 | 50.03636 | 8.53549 | 346 ft | 33 kts | 248° |
| 2026-05-04 10:57 | 50.03551 | 8.53191 | 346 ft | 37 kts | 250° |
| 2026-05-04 10:57 | 50.03458 | 8.52820 | 349 ft | 37 kts | 248° |
| 2026-05-04 10:57 | 50.03316 | 8.52597 | 346 ft | 25 kts | 176° |
| 2026-05-04 10:57 | 50.03277 | 8.52594 | 351 ft | 0 kts | 180° |
| 2026-05-04 10:58 | 50.03275 | 8.52594 | 351 ft | 1 kts | 180° |
| 2026-05-04 10:58 | 50.03136 | 8.52595 | 350 ft | 62 kts | 179° |
| 2026-05-04 10:58 | 50.02384 | 8.52602 | 346 ft | 149 kts | 180° |
| 2026-05-04 10:59 | 50.01236 | 8.52616 | 939 ft | 165 kts | 180° |
| 2026-05-04 10:59 | 50.00084 | 8.52669 | 1893 ft | 168 kts | 180° |
| 2026-05-04 10:59 | 49.98848 | 8.52747 | 2507 ft | 188 kts | 179° |
| 2026-05-04 10:59 | 49.97461 | 8.52834 | 2977 ft | 211 kts | 180° |
| 2026-05-04 11:00 | 49.95928 | 8.52935 | 3616 ft | 226 kts | 180° |
| 2026-05-04 11:01 | 49.84492 | 8.53730 | 10685 ft | 244 kts | 179° |
| 2026-05-04 11:02 | 49.82787 | 8.53844 | 11595 ft | 247 kts | 179° |
| 2026-05-04 11:02 | 49.81054 | 8.53955 | 12498 ft | 251 kts | 179° |
| 2026-05-04 11:05 | 49.46945 | 8.50036 | 18920 ft | 412 kts | 186° |
| 2026-05-04 11:06 | 49.44118 | 8.49668 | 19011 ft | 417 kts | 186° |
| 2026-05-04 11:06 | 49.41202 | 8.49284 | 19029 ft | 423 kts | 186° |
| 2026-05-04 11:06 | 49.38266 | 8.48897 | 19029 ft | 424 kts | 186° |
| 2026-05-04 11:06 | 49.35330 | 8.48511 | 19028 ft | 424 kts | 186° |
| 2026-05-04 11:08 | 49.16032 | 8.58791 | 19008 ft | 429 kts | 164° |
| 2026-05-04 11:10 | 48.95603 | 8.58858 | 16579 ft | 411 kts | 176° |
| 2026-05-04 11:12 | 48.84252 | 8.77577 | 11655 ft | 404 kts | 81° |
| 2026-05-04 11:12 | 48.84787 | 8.81741 | 10913 ft | 399 kts | 81° |
| 2026-05-04 11:12 | 48.85136 | 8.84467 | 10434 ft | 395 kts | 81° |
| 2026-05-04 11:12 | 48.85655 | 8.88536 | 9812 ft | 387 kts | 82° |
| 2026-05-04 11:13 | 48.86147 | 8.92388 | 9583 ft | 356 kts | 82° |
| 2026-05-04 11:13 | 48.86597 | 8.95910 | 9412 ft | 326 kts | 82° |
| 2026-05-04 11:13 | 48.87008 | 8.99158 | 9277 ft | 301 kts | 82° |
| 2026-05-04 11:13 | 48.87388 | 9.02204 | 8881 ft | 288 kts | 82° |
| 2026-05-04 11:14 | 48.87754 | 9.05180 | 8440 ft | 286 kts | 81° |
| 2026-05-04 11:14 | 48.88117 | 9.08140 | 8072 ft | 284 kts | 81° |
| 2026-05-04 11:14 | 48.88478 | 9.11072 | 7691 ft | 282 kts | 81° |
| 2026-05-04 11:16 | 48.90681 | 9.29045 | 5867 ft | 233 kts | 84° |
| 2026-05-04 11:16 | 48.90609 | 9.31486 | 5570 ft | 231 kts | 103° |
| 2026-05-04 11:16 | 48.90031 | 9.33733 | 5231 ft | 228 kts | 122° |
| 2026-05-04 11:17 | 48.89029 | 9.35565 | 4907 ft | 226 kts | 141° |
| 2026-05-04 11:17 | 48.87716 | 9.36841 | 4557 ft | 224 kts | 155° |
| 2026-05-04 11:19 | 48.78076 | 9.44379 | 3999 ft | 217 kts | 153° |
| 2026-05-04 11:19 | 48.76754 | 9.45417 | 3997 ft | 209 kts | 153° |
| 2026-05-04 11:19 | 48.75441 | 9.46206 | 3966 ft | 198 kts | 175° |
| 2026-05-04 11:19 | 48.74129 | 9.45842 | 3963 ft | 192 kts | 209° |
| 2026-05-04 11:20 | 48.73203 | 9.44435 | 3814 ft | 190 kts | 244° |
| 2026-05-04 11:20 | 48.72816 | 9.42566 | 3603 ft | 184 kts | 255° |
| 2026-05-04 11:20 | 48.72475 | 9.40727 | 3377 ft | 178 kts | 255° |
| 2026-05-04 11:20 | 48.72147 | 9.38976 | 3150 ft | 167 kts | 255° |
| 2026-05-04 11:22 | 48.70222 | 9.28739 | 1814 ft | 141 kts | 257° |
| 2026-05-04 11:22 | 48.69945 | 9.27280 | 1706 ft | 152 kts | 254° |
| 2026-05-04 11:23 | 48.69654 | 9.25756 | 2445 ft | 150 kts | 256° |
| 2026-05-04 11:23 | 48.69344 | 9.24173 | 3012 ft | 168 kts | 256° |
| 2026-05-04 11:24 | 48.66977 | 9.11667 | 4982 ft | 234 kts | 255° |
| 2026-05-04 11:25 | 48.66887 | 9.09231 | 4974 ft | 235 kts | 287° |
| 2026-05-04 11:25 | 48.67802 | 9.07239 | 4982 ft | 234 kts | 324° |
| 2026-05-04 11:25 | 48.69278 | 9.06254 | 4991 ft | 235 kts | 346° |
| 2026-05-04 11:26 | 48.72411 | 9.04912 | 4984 ft | 234 kts | 343° |
| 2026-05-04 11:27 | 48.81074 | 9.13969 | 4980 ft | 220 kts | 50° |
| 2026-05-04 11:28 | 48.82034 | 9.15764 | 4981 ft | 218 kts | 50° |
| 2026-05-04 11:28 | 48.82991 | 9.17548 | 4982 ft | 218 kts | 50° |
| 2026-05-04 11:28 | 48.83944 | 9.19331 | 4985 ft | 218 kts | 50° |
| 2026-05-04 11:28 | 48.84883 | 9.21091 | 4982 ft | 218 kts | 49° |
| 2026-05-04 11:29 | 48.85838 | 9.22883 | 4983 ft | 220 kts | 51° |
| 2026-05-04 11:29 | 48.86805 | 9.24696 | 4984 ft | 221 kts | 51° |
| 2026-05-04 11:29 | 48.87775 | 9.26516 | 4987 ft | 222 kts | 51° |
| 2026-05-04 11:29 | 48.88751 | 9.28352 | 4987 ft | 223 kts | 51° |
| 2026-05-04 11:31 | 48.83820 | 9.39239 | 3983 ft | 234 kts | 160° |
| 2026-05-04 11:33 | 48.74226 | 9.44554 | 3940 ft | 179 kts | 188° |
| 2026-05-04 11:33 | 48.73177 | 9.43697 | 3730 ft | 172 kts | 231° |
| 2026-05-04 11:33 | 48.72732 | 9.42064 | 3561 ft | 168 kts | 257° |
| 2026-05-04 11:34 | 48.72415 | 9.40367 | 3346 ft | 167 kts | 256° |
| 2026-05-04 11:34 | 48.72095 | 9.38681 | 3118 ft | 167 kts | 256° |
| 2026-05-04 11:34 | 48.71782 | 9.37021 | 2891 ft | 157 kts | 255° |
| 2026-05-04 11:34 | 48.71493 | 9.35493 | 2705 ft | 147 kts | 256° |
| 2026-05-04 11:35 | 48.71221 | 9.34043 | 2493 ft | 143 kts | 256° |
| 2026-05-04 11:35 | 48.70949 | 9.32602 | 2316 ft | 142 kts | 255° |
| 2026-05-04 11:35 | 48.70676 | 9.31167 | 2120 ft | 141 kts | 256° |
| 2026-05-04 11:35 | 48.70408 | 9.29733 | 1958 ft | 142 kts | 257° |
| 2026-05-04 11:36 | 48.70134 | 9.28297 | 1781 ft | 143 kts | 256° |
| 2026-05-04 11:36 | 48.69846 | 9.26799 | 1996 ft | 152 kts | 255° |
| 2026-05-04 11:36 | 48.69547 | 9.25219 | 2611 ft | 165 kts | 256° |
| 2026-05-04 11:36 | 48.69214 | 9.23439 | 3145 ft | 187 kts | 256° |
| 2026-05-04 11:37 | 48.68839 | 9.21455 | 3718 ft | 203 kts | 255° |
| 2026-05-04 11:37 | 48.68440 | 9.19360 | 4469 ft | 210 kts | 253° |
| 2026-05-04 11:37 | 48.68031 | 9.17220 | 4845 ft | 211 kts | 253° |
| 2026-05-04 11:37 | 48.67612 | 9.15020 | 4963 ft | 230 kts | 255° |
| 2026-05-04 11:38 | 48.67163 | 9.12654 | 4980 ft | 237 kts | 255° |
| 2026-05-04 11:38 | 48.66798 | 9.10257 | 4969 ft | 237 kts | 269° |
| 2026-05-04 11:38 | 48.67281 | 9.07952 | 4980 ft | 234 kts | 310° |
| 2026-05-04 11:38 | 48.68584 | 9.06546 | 4983 ft | 232 kts | 341° |
| 2026-05-04 11:39 | 48.70146 | 9.05895 | 4980 ft | 233 kts | 345° |
| 2026-05-04 11:39 | 48.71711 | 9.05219 | 4982 ft | 234 kts | 344° |
| 2026-05-04 11:40 | 48.79613 | 9.11236 | 4982 ft | 239 kts | 49° |
| 2026-05-04 11:41 | 48.80661 | 9.13191 | 4983 ft | 239 kts | 50° |
| 2026-05-04 11:41 | 48.81709 | 9.15146 | 4984 ft | 238 kts | 50° |
| 2026-05-04 11:41 | 48.82755 | 9.17095 | 4983 ft | 238 kts | 50° |
| 2026-05-04 11:41 | 48.83799 | 9.19045 | 4983 ft | 238 kts | 50° |
| 2026-05-04 11:42 | 48.84623 | 9.21216 | 4981 ft | 240 kts | 72° |
| 2026-05-04 11:42 | 48.84733 | 9.23724 | 4983 ft | 241 kts | 102° |
| 2026-05-04 11:42 | 48.84077 | 9.26024 | 4985 ft | 239 kts | 126° |
| 2026-05-04 11:42 | 48.83110 | 9.28078 | 4984 ft | 240 kts | 128° |
| 2026-05-04 11:43 | 48.82145 | 9.30113 | 4905 ft | 232 kts | 127° |
| 2026-05-04 11:43 | 48.81217 | 9.32072 | 4480 ft | 228 kts | 127° |
| 2026-05-04 11:43 | 48.80293 | 9.34015 | 4077 ft | 227 kts | 126° |
| 2026-05-04 11:43 | 48.79396 | 9.35902 | 3984 ft | 217 kts | 126° |
| 2026-05-04 11:44 | 48.78513 | 9.37764 | 3990 ft | 218 kts | 126° |
| 2026-05-04 11:44 | 48.77643 | 9.39602 | 3988 ft | 217 kts | 126° |
| 2026-05-04 11:44 | 48.76766 | 9.41451 | 3988 ft | 211 kts | 126° |
| 2026-05-04 11:44 | 48.75837 | 9.43098 | 3970 ft | 202 kts | 147° |
| 2026-05-04 11:45 | 48.74535 | 9.43710 | 3802 ft | 195 kts | 184° |
| 2026-05-04 11:45 | 48.73328 | 9.43047 | 3617 ft | 181 kts | 220° |
| 2026-05-04 11:45 | 48.72633 | 9.41558 | 3455 ft | 171 kts | 253° |
| 2026-05-04 11:45 | 48.72308 | 9.39842 | 3268 ft | 169 kts | 257° |
| 2026-05-04 11:46 | 48.71990 | 9.38139 | 3054 ft | 167 kts | 256° |
| 2026-05-04 11:46 | 48.71679 | 9.36480 | 2822 ft | 156 kts | 255° |
| 2026-05-04 11:46 | 48.71393 | 9.34961 | 2623 ft | 145 kts | 257° |
| 2026-05-04 11:46 | 48.71120 | 9.33509 | 2429 ft | 143 kts | 257° |
| 2026-05-04 11:47 | 48.70849 | 9.32067 | 2248 ft | 142 kts | 257° |
| 2026-05-04 11:47 | 48.70578 | 9.30630 | 2073 ft | 142 kts | 256° |
| 2026-05-04 11:47 | 48.70306 | 9.29195 | 1874 ft | 143 kts | 256° |
| 2026-05-04 11:47 | 48.70032 | 9.27754 | 1709 ft | 143 kts | 256° |
| 2026-05-04 11:48 | 48.69763 | 9.26314 | 1563 ft | 142 kts | 255° |
| 2026-05-04 11:48 | 48.69496 | 9.24880 | 1386 ft | 141 kts | 256° |
| 2026-05-04 11:48 | 48.69231 | 9.23483 | 1291 ft | 133 kts | 256° |
| 2026-05-04 11:48 | 48.69018 | 9.22351 | 1289 ft | 88 kts | 254° |
| 2026-05-04 11:49 | 48.68949 | 9.21699 | 1287 ft | 44 kts | 281° |
| 2026-05-04 11:49 | 48.68996 | 9.21414 | 1287 ft | 15 kts | 284° |
| 2026-05-04 11:49 | 48.69030 | 9.21208 | 1286 ft | 22 kts | 284° |
| 2026-05-04 11:49 | 48.69019 | 9.20983 | 1288 ft | 22 kts | 253° |
| 2026-05-04 11:50 | 48.68976 | 9.20755 | 1285 ft | 21 kts | 254° |
| 2026-05-04 11:50 | 48.68940 | 9.20572 | 1287 ft | 18 kts | 253° |
| 2026-05-04 11:50 | 48.68905 | 9.20382 | 1285 ft | 19 kts | 254° |
| 2026-05-04 11:50 | 48.68867 | 9.20178 | 1286 ft | 21 kts | 253° |
| 2026-05-04 11:51 | 48.68824 | 9.19951 | 1285 ft | 21 kts | 262° |
| 2026-05-04 11:51 | 48.68879 | 9.19804 | 1287 ft | 9 kts | 289° |
| 2026-05-04 11:51 | 48.68890 | 9.19749 | 1290 ft | 4 kts | 330° |
| 2026-05-04 11:51 | 48.68937 | 9.19722 | 1289 ft | 9 kts | 344° |
| 2026-05-04 11:52 | 48.68949 | 9.19717 | 1285 ft | 0 kts | 344° |